createdAt,value
2023-02-11T00:01:42.887Z,-7.61
2023-02-11T00:04:11.270Z,-7.62
2023-02-11T00:06:39.427Z,-7.47
2023-02-11T00:09:07.886Z,-7.93
2023-02-11T00:11:35.970Z,-8.07
2023-02-11T00:14:08.065Z,-8.21
2023-02-11T00:16:37.556Z,-8.15
2023-02-11T00:19:06.754Z,-8.23
2023-02-11T00:21:34.961Z,-8.47
2023-02-11T00:24:03.001Z,-8.46
2023-02-11T00:26:35.853Z,-8.58
2023-02-11T00:29:05.977Z,-8.79
2023-02-11T00:31:35.103Z,-8.93
2023-02-11T00:34:03.173Z,-8.63
2023-02-11T00:36:31.581Z,-8.49
2023-02-11T00:39:00.887Z,-8.35
2023-02-11T00:41:30.008Z,-8.37
2023-02-11T00:44:01.755Z,-8.61
2023-02-11T00:46:30.391Z,-8.45
2023-02-11T00:48:58.810Z,-8.39
2023-02-11T00:51:28.649Z,-8.26
2023-02-11T00:53:57.296Z,-8.32
2023-02-11T00:56:25.196Z,-8.40
2023-02-11T00:58:54.287Z,-8.24
2023-02-11T01:01:22.436Z,-8.25
2023-02-11T01:03:50.425Z,-8.44
2023-02-11T01:06:18.507Z,-8.89
2023-02-11T01:08:46.460Z,-8.67
2023-02-11T01:11:18.101Z,-8.87
2023-02-11T01:13:47.238Z,-9.05
2023-02-11T01:16:17.128Z,-8.90
2023-02-11T01:18:46.501Z,-8.92
2023-02-11T01:21:15.078Z,-9.26
2023-02-11T01:23:44.046Z,-9.29
2023-02-11T01:26:12.648Z,-9.05
2023-02-11T01:28:40.555Z,-9.18
2023-02-11T01:31:08.895Z,-9.15
2023-02-11T01:33:36.726Z,-9.01
2023-02-11T01:36:08.435Z,-9.11
2023-02-11T01:38:36.803Z,-9.19
2023-02-11T01:41:11.355Z,-9.01
2023-02-11T01:43:42.841Z,-8.91
2023-02-11T01:46:29.274Z,-8.89
2023-02-11T01:49:08.929Z,-8.93
2023-02-11T01:52:01.940Z,-8.88
2023-02-11T01:54:59.624Z,-8.78
2023-02-11T01:57:31.388Z,-8.76
2023-02-11T02:00:21.761Z,-8.73
2023-02-11T02:03:04.476Z,-8.96
2023-02-11T02:05:42.015Z,-9.05
2023-02-11T02:08:32.474Z,-9.03
2023-02-11T02:11:03.875Z,-9.03
2023-02-11T02:13:34.314Z,-9.16
2023-02-11T02:16:12.861Z,-9.29
2023-02-11T02:19:08.788Z,-9.73
2023-02-11T02:22:14.531Z,-9.81
2023-02-11T02:25:01.264Z,-9.91
2023-02-11T02:27:51.229Z,-9.79
2023-02-11T02:30:43.856Z,-9.90
2023-02-11T02:33:38.017Z,-9.86
2023-02-11T02:36:14.722Z,-9.68
2023-02-11T02:38:56.434Z,-9.48
2023-02-11T02:41:30.146Z,-9.49
2023-02-11T02:43:58.603Z,-9.47
2023-02-11T02:46:30.106Z,-9.43
2023-02-11T02:48:58.879Z,-9.54
2023-02-11T02:51:58.213Z,-9.45
2023-02-11T02:54:40.309Z,-9.41
2023-02-11T02:58:54.206Z,-9.91
2023-02-11T03:01:28.779Z,-9.95
2023-02-11T03:04:18.661Z,-9.95
2023-02-11T03:07:04.331Z,-9.92
2023-02-11T03:09:42.954Z,-9.97
2023-02-11T03:12:13.488Z,-9.70
2023-02-11T03:14:42.326Z,-9.76
2023-02-11T03:17:10.865Z,-9.99
2023-02-11T03:19:44.679Z,-9.90
2023-02-11T03:22:26.711Z,-9.93
2023-02-11T03:24:56.532Z,-9.86
2023-02-11T03:27:47.553Z,-10.13
2023-02-11T03:30:26.450Z,-10.35
2023-02-11T03:33:03.931Z,-10.27
2023-02-11T03:36:03.851Z,-10.22
2023-02-11T03:38:36.049Z,-10.66
2023-02-11T03:41:08.170Z,-10.24
2023-02-11T03:43:42.938Z,-10.22
2023-02-11T03:46:13.766Z,-10.40
2023-02-11T03:48:52.640Z,-10.69
2023-02-11T03:51:22.567Z,-10.84
2023-02-11T03:53:53.011Z,-10.61
2023-02-11T03:56:25.600Z,-10.96
2023-02-11T03:58:53.687Z,-10.80
2023-02-11T04:01:21.899Z,-10.60
2023-02-11T04:03:49.767Z,-10.43
2023-02-11T04:06:18.193Z,-10.34
2023-02-11T04:08:46.066Z,-10.33
2023-02-11T04:11:13.945Z,-10.66
2023-02-11T04:13:41.739Z,-10.87
2023-02-11T04:16:10.115Z,-10.93
2023-02-11T04:18:38.334Z,-10.94
2023-02-11T04:21:06.446Z,-10.96
2023-02-11T04:23:34.300Z,-10.90
2023-02-11T04:26:02.347Z,-10.84
2023-02-11T04:28:30.328Z,-10.65
2023-02-11T04:30:58.761Z,-10.53
2023-02-11T04:33:26.827Z,-10.69
2023-02-11T04:35:54.833Z,-10.86
2023-02-11T04:38:24.421Z,-10.75
2023-02-11T04:40:52.600Z,-10.69
2023-02-11T04:43:20.547Z,-10.60
2023-02-11T04:45:48.919Z,-10.85
2023-02-11T04:48:17.056Z,-10.95
2023-02-11T04:50:44.931Z,-11.01
2023-02-11T04:53:12.891Z,-11.02
2023-02-11T04:55:40.841Z,-11.10
2023-02-11T04:58:08.814Z,-11.23
2023-02-11T05:00:36.838Z,-11.09
2023-02-11T05:03:04.598Z,-10.99
2023-02-11T05:05:32.555Z,-10.92
2023-02-11T05:08:00.551Z,-10.80
2023-02-11T05:10:28.875Z,-10.96
2023-02-11T05:12:56.964Z,-10.98
2023-02-11T05:15:24.903Z,-11.07
2023-02-11T05:17:53.285Z,-11.24
2023-02-11T05:20:21.606Z,-11.30
2023-02-11T05:22:49.587Z,-11.22
2023-02-11T05:25:17.467Z,-11.35
2023-02-11T05:27:45.588Z,-11.59
2023-02-11T05:30:13.666Z,-11.78
2023-02-11T05:32:42.460Z,-11.72
2023-02-11T05:35:10.371Z,-11.82
2023-02-11T05:37:38.616Z,-11.63
2023-02-11T05:40:06.824Z,-11.69
2023-02-11T05:42:34.803Z,-11.56
2023-02-11T05:45:02.732Z,-11.40
2023-02-11T05:47:30.861Z,-11.35
2023-02-11T05:49:59.018Z,-11.23
2023-02-11T05:52:26.953Z,-11.08
2023-02-11T05:54:54.881Z,-11.00
2023-02-11T05:57:23.089Z,-10.99
2023-02-11T05:59:50.994Z,-11.19
2023-02-11T06:02:19.192Z,-11.35
2023-02-11T06:04:47.487Z,-11.22
2023-02-11T06:07:15.629Z,-11.17
2023-02-11T06:09:44.000Z,-11.13
2023-02-11T06:12:12.934Z,-11.44
2023-02-11T06:14:40.945Z,-11.39
2023-02-11T06:17:09.219Z,-11.21
2023-02-11T06:19:37.738Z,-11.10
2023-02-11T06:22:06.094Z,-10.79
2023-02-11T06:24:58.606Z,-10.73
2023-02-11T06:27:22.434Z,-10.60
2023-02-11T06:29:52.652Z,-10.35
2023-02-11T06:32:42.091Z,-10.32
2023-02-11T06:35:11.457Z,-10.37
2023-02-11T06:37:41.286Z,-10.25
2023-02-11T06:40:10.469Z,-10.04
2023-02-11T06:42:39.626Z,-9.84
2023-02-11T06:45:13.420Z,-9.91
2023-02-11T06:47:42.221Z,-9.80
2023-02-11T06:50:13.926Z,-9.76
2023-02-11T06:52:42.377Z,-9.81
2023-02-11T06:55:10.570Z,-9.54
2023-02-11T06:57:38.652Z,-9.18
2023-02-11T07:00:09.461Z,-8.92
2023-02-11T07:02:37.372Z,-9.01
2023-02-11T07:05:07.438Z,-9.02
2023-02-11T07:07:36.236Z,-8.90
2023-02-11T07:10:04.891Z,-8.80
2023-02-11T07:12:33.133Z,-8.68
2023-02-11T07:15:01.309Z,-8.51
2023-02-11T07:17:29.308Z,-8.35
2023-02-11T07:19:57.292Z,-8.13
2023-02-11T07:22:25.583Z,-8.10
2023-02-11T07:24:53.677Z,-8.04
2023-02-11T07:27:21.593Z,-7.84
2023-02-11T07:29:49.560Z,-7.60
2023-02-11T07:32:17.853Z,-7.48
2023-02-11T07:34:46.019Z,-7.39
2023-02-11T07:37:14.386Z,-7.40
2023-02-11T07:39:42.292Z,-7.06
2023-02-11T07:42:10.284Z,-7.02
2023-02-11T07:44:38.295Z,-6.77
2023-02-11T07:47:06.365Z,-5.91
2023-02-11T07:49:34.340Z,-3.54
2023-02-11T07:52:02.648Z,-3.29
2023-02-11T07:54:30.797Z,-3.53
2023-02-11T07:56:59.255Z,-3.82
2023-02-11T07:59:27.689Z,-4.01
2023-02-11T08:01:56.004Z,-3.92
2023-02-11T08:04:24.039Z,-4.31
2023-02-11T08:06:53.343Z,-4.13
2023-02-11T08:09:21.477Z,-3.52
2023-02-11T08:11:49.724Z,-2.48
2023-02-11T08:14:17.708Z,-2.23
2023-02-11T08:16:45.770Z,-1.81
2023-02-11T08:19:16.263Z,-1.02
2023-02-11T08:21:44.795Z,-0.92
2023-02-11T08:24:12.870Z,-0.22
2023-02-11T08:26:41.275Z,0.52
2023-02-11T08:29:12.379Z,1.20
2023-02-11T08:31:42.919Z,1.29
2023-02-11T08:34:14.413Z,1.63
2023-02-11T08:36:42.864Z,1.87
2023-02-11T08:39:22.565Z,1.60
2023-02-11T08:41:56.853Z,1.69
2023-02-11T08:44:25.266Z,2.39
2023-02-11T08:46:54.181Z,2.52
2023-02-11T08:49:23.041Z,2.18
2023-02-11T08:51:51.654Z,2.39
2023-02-11T08:54:19.763Z,3.13
2023-02-11T08:56:52.077Z,3.48
2023-02-11T08:59:20.440Z,4.30
2023-02-11T09:01:49.133Z,4.73
2023-02-11T09:04:17.905Z,4.65
2023-02-11T09:06:46.577Z,5.16
2023-02-11T09:09:16.140Z,6.13
2023-02-11T09:11:45.989Z,7.73
2023-02-11T09:14:23.199Z,9.28
2023-02-11T09:16:52.046Z,10.84
2023-02-11T09:19:21.308Z,10.72
2023-02-11T09:21:49.576Z,12.01
2023-02-11T09:24:17.632Z,11.79
2023-02-11T09:26:45.975Z,12.14
2023-02-11T09:29:14.078Z,12.05
2023-02-11T09:31:42.811Z,12.30
2023-02-11T09:34:11.886Z,11.81
2023-02-11T09:36:41.408Z,12.17
2023-02-11T09:39:17.209Z,13.22
2023-02-11T09:41:54.189Z,12.91
2023-02-11T09:44:25.771Z,13.27
2023-02-11T09:47:00.264Z,13.33
2023-02-11T09:49:49.118Z,14.46
2023-02-11T09:52:31.225Z,15.79
2023-02-11T09:55:02.380Z,16.58
2023-02-11T09:57:36.809Z,17.28
2023-02-11T10:00:32.618Z,18.05
2023-02-11T10:03:20.156Z,18.57
2023-02-11T10:06:23.563Z,17.86
2023-02-11T10:09:20.098Z,17.09
2023-02-11T10:11:59.712Z,16.88
2023-02-11T10:15:04.981Z,17.47
2023-02-11T10:18:07.149Z,17.22
2023-02-11T10:20:38.310Z,15.89
2023-02-11T10:23:26.123Z,15.68
2023-02-11T10:25:56.667Z,16.56
2023-02-11T10:28:31.689Z,16.72
2023-02-11T10:31:25.566Z,15.64
2023-02-11T10:34:06.819Z,16.23
2023-02-11T10:36:38.189Z,16.68
2023-02-11T10:39:26.396Z,16.12
2023-02-11T10:42:00.806Z,15.34
2023-02-11T10:44:33.531Z,14.30
2023-02-11T10:47:06.075Z,14.61
2023-02-11T10:49:43.233Z,15.71
2023-02-11T10:52:26.268Z,16.65
2023-02-11T10:54:58.437Z,16.41
2023-02-11T10:57:35.852Z,16.85
2023-02-11T11:00:27.174Z,17.64
2023-02-11T11:03:00.576Z,17.03
2023-02-11T11:05:47.756Z,16.33
2023-02-11T11:11:07.417Z,16.91
2023-02-11T11:36:02.851Z,16.26
2023-02-11T11:38:33.888Z,16.48
2023-02-11T12:25:35.883Z,7.16
2023-02-11T12:40:05.730Z,5.79
2023-02-11T12:52:16.927Z,5.18
2023-02-11T13:14:40.696Z,4.79
2023-02-11T13:26:27.251Z,4.88
2023-02-11T13:29:22.438Z,4.86
2023-02-11T13:35:09.799Z,4.69
2023-02-11T13:43:47.956Z,5.00
2023-02-11T14:00:31.386Z,5.92
2023-02-11T14:03:31.656Z,5.77
2023-02-11T14:06:37.869Z,5.54
2023-02-11T14:15:02.630Z,4.56
2023-02-11T14:44:22.673Z,3.04
2023-02-11T15:31:47.914Z,1.81
2023-02-11T15:34:16.591Z,1.74
2023-02-11T15:36:45.066Z,1.68
2023-02-11T15:39:18.920Z,1.70
2023-02-11T15:41:47.620Z,1.52
2023-02-11T15:44:33.093Z,1.53
2023-02-11T15:47:01.658Z,1.56
2023-02-11T15:49:30.615Z,1.56
2023-02-11T15:51:59.095Z,1.49
2023-02-11T15:54:31.946Z,1.51
2023-02-11T15:57:04.336Z,1.47
2023-02-11T15:59:38.998Z,1.33
2023-02-11T16:02:35.123Z,1.33
2023-02-11T16:05:10.198Z,1.28
2023-02-11T16:07:49.985Z,1.26
2023-02-11T16:10:27.937Z,1.05
2023-02-11T16:13:19.025Z,1.07
2023-02-11T16:16:04.396Z,0.93
2023-02-11T16:18:52.088Z,0.83
2023-02-11T16:21:43.645Z,0.81
2023-02-11T16:24:39.708Z,0.77
2023-02-11T16:27:22.009Z,0.58
2023-02-11T16:29:51.649Z,0.55
2023-02-11T16:32:23.964Z,0.64
2023-02-11T16:34:55.731Z,0.42
2023-02-11T16:37:25.556Z,0.34
2023-02-11T16:39:55.775Z,0.28
2023-02-11T16:42:24.894Z,-0.03
2023-02-11T16:44:53.384Z,-0.05
2023-02-11T16:47:27.518Z,-0.02
2023-02-11T16:49:57.403Z,-0.07
2023-02-11T16:52:26.383Z,-0.36
2023-02-11T16:54:55.351Z,-0.38
2023-02-11T16:57:28.805Z,-0.32
2023-02-11T17:00:00.070Z,-0.38
2023-02-11T17:02:33.312Z,-0.37
2023-02-11T17:05:05.286Z,-0.72
2023-02-11T17:07:34.539Z,-0.78
2023-02-11T17:10:03.112Z,-0.90
2023-02-11T17:12:31.994Z,-0.82
2023-02-11T17:15:00.633Z,-0.90
2023-02-11T17:17:30.370Z,-1.14
2023-02-11T17:19:59.087Z,-1.18
2023-02-11T17:22:27.546Z,-1.06
2023-02-11T17:24:59.186Z,-0.96
2023-02-11T17:27:28.041Z,-1.08
2023-02-11T17:29:56.532Z,-1.14
2023-02-11T17:32:25.135Z,-1.06
2023-02-11T17:34:54.637Z,-1.14
2023-02-11T17:37:22.881Z,-1.33
2023-02-11T17:39:51.526Z,-1.42
2023-02-11T17:42:20.144Z,-1.38
2023-02-11T17:44:48.551Z,-1.47
2023-02-11T17:47:17.109Z,-1.33
2023-02-11T17:49:46.084Z,-1.68
2023-02-11T17:52:15.255Z,-1.68
2023-02-11T17:54:43.758Z,-1.66
2023-02-11T17:57:13.700Z,-1.60
2023-02-11T17:59:42.317Z,-1.53
2023-02-11T18:02:13.037Z,-1.76
2023-02-11T18:04:41.687Z,-1.80
2023-02-11T18:07:09.993Z,-1.88
2023-02-11T18:09:40.269Z,-1.95
2023-02-11T18:12:09.370Z,-2.00
2023-02-11T18:14:41.578Z,-2.16
2023-02-11T18:17:11.210Z,-1.99
2023-02-11T18:19:39.861Z,-2.17
2023-02-11T18:22:09.849Z,-2.26
2023-02-11T18:24:40.750Z,-2.36
2023-02-11T18:27:09.725Z,-2.27
2023-02-11T18:29:38.729Z,-2.37
2023-02-11T18:32:07.408Z,-2.25
2023-02-11T18:34:35.719Z,-2.23
2023-02-11T18:37:04.198Z,-2.28
2023-02-11T18:39:32.975Z,-2.35
2023-02-11T18:42:01.467Z,-2.24
2023-02-11T18:44:29.892Z,-2.47
2023-02-11T18:46:58.578Z,-2.63
2023-02-11T18:49:27.579Z,-2.97
2023-02-11T18:51:58.625Z,-3.08
2023-02-11T18:54:27.296Z,-2.97
2023-02-11T18:56:55.683Z,-3.01
2023-02-11T18:59:24.198Z,-3.28
2023-02-11T19:01:52.828Z,-3.46
2023-02-11T19:04:21.264Z,-3.26
2023-02-11T19:06:50.384Z,-3.16
2023-02-11T19:09:20.596Z,-3.19
2023-02-11T19:11:52.671Z,-3.24
2023-02-11T19:14:25.450Z,-3.20
2023-02-11T19:16:56.938Z,-3.12
2023-02-11T19:19:28.627Z,-3.13
2023-02-11T19:21:58.720Z,-3.36
2023-02-11T19:24:28.848Z,-3.39
2023-02-11T19:26:59.535Z,-3.22
2023-02-11T19:29:28.824Z,-3.25
2023-02-11T19:31:57.275Z,-3.34
2023-02-11T19:34:25.875Z,-3.30
2023-02-11T19:36:54.815Z,-3.47
2023-02-11T19:39:25.116Z,-3.36
2023-02-11T19:41:54.183Z,-3.65
2023-02-11T19:44:22.571Z,-3.56
2023-02-11T19:46:53.727Z,-3.41
2023-02-11T19:49:26.824Z,-3.58
2023-02-11T19:51:58.639Z,-3.49
2023-02-11T19:54:29.491Z,-3.76
2023-02-11T19:56:59.103Z,-3.98
2023-02-11T19:59:27.914Z,-4.02
2023-02-11T20:01:56.398Z,-3.92
2023-02-11T20:04:25.465Z,-3.87
2023-02-11T20:06:54.015Z,-3.97
2023-02-11T20:09:23.184Z,-4.03
2023-02-11T20:11:51.686Z,-4.12
2023-02-11T20:14:20.222Z,-4.28
2023-02-11T20:16:50.092Z,-4.26
2023-02-11T20:19:22.157Z,-4.09
2023-02-11T20:21:56.156Z,-4.52
2023-02-11T20:24:25.969Z,-4.38
2023-02-11T20:26:57.378Z,-4.23
2023-02-11T20:29:26.274Z,-4.18
2023-02-11T20:31:55.335Z,-4.43
2023-02-11T20:34:25.345Z,-4.46
2023-02-11T20:36:54.692Z,-4.37
2023-02-11T20:39:25.700Z,-4.34
2023-02-11T20:41:54.884Z,-4.35
2023-02-11T20:44:23.768Z,-4.40
2023-02-11T20:46:54.638Z,-4.49
2023-02-11T20:49:25.035Z,-4.54
2023-02-11T20:51:54.326Z,-4.66
2023-02-11T20:54:25.299Z,-4.58
2023-02-11T20:56:54.607Z,-4.51
2023-02-11T20:59:23.350Z,-4.80
2023-02-11T21:01:54.398Z,-4.99
2023-02-11T21:04:29.851Z,-4.79
2023-02-11T21:07:00.981Z,-4.91
2023-02-11T21:09:32.575Z,-4.93
2023-02-11T21:12:01.929Z,-4.99
2023-02-11T21:14:30.787Z,-4.93
2023-02-11T21:16:59.396Z,-4.86
2023-02-11T21:19:27.691Z,-4.79
2023-02-11T21:21:57.524Z,-4.74
2023-02-11T21:24:25.801Z,-4.72
2023-02-11T21:26:54.368Z,-4.95
2023-02-11T21:29:22.791Z,-5.04
2023-02-11T21:31:51.860Z,-5.07
2023-02-11T21:34:20.938Z,-5.03
2023-02-11T21:36:51.492Z,-5.30
2023-02-11T21:39:20.789Z,-5.06
2023-02-11T21:41:49.551Z,-5.03
2023-02-11T21:44:18.107Z,-5.03
2023-02-11T21:46:46.143Z,-5.15
2023-02-11T21:49:14.313Z,-5.05
2023-02-11T21:51:42.752Z,-5.14
2023-02-11T21:54:12.161Z,-5.17
2023-02-11T21:56:40.811Z,-5.11
2023-02-11T21:59:12.477Z,-5.36
2023-02-11T22:01:40.811Z,-5.17
2023-02-11T22:04:10.249Z,-5.11
2023-02-11T22:06:38.537Z,-5.08
2023-02-11T22:09:08.722Z,-5.49
2023-02-11T22:11:36.970Z,-5.53
2023-02-11T22:14:05.347Z,-5.46
2023-02-11T22:16:33.626Z,-5.25
2023-02-11T22:19:02.692Z,-5.18
2023-02-11T22:21:32.579Z,-5.26
2023-02-11T22:24:00.561Z,-5.50
2023-02-11T22:26:29.041Z,-5.20
2023-02-11T22:28:57.112Z,-5.27
2023-02-11T22:31:31.433Z,-5.52
2023-02-11T22:34:00.530Z,-5.77
2023-02-11T22:36:34.852Z,-5.40
2023-02-11T22:39:08.263Z,-5.17
2023-02-11T22:41:38.467Z,-5.29
2023-02-11T22:44:06.864Z,-5.17
2023-02-11T22:46:35.651Z,-5.39
2023-02-11T22:49:05.139Z,-5.43
2023-02-11T22:51:33.378Z,-5.38
2023-02-11T22:54:03.947Z,-5.26
2023-02-11T22:56:33.782Z,-5.26
2023-02-11T22:59:02.988Z,-5.12
2023-02-11T23:01:31.762Z,-5.11
2023-02-11T23:04:02.640Z,-5.14
2023-02-11T23:06:30.939Z,-5.06
2023-02-11T23:08:58.966Z,-5.05
2023-02-11T23:11:29.091Z,-5.32
2023-02-11T23:13:57.288Z,-5.20
2023-02-11T23:16:33.627Z,-5.22
2023-02-11T23:19:05.295Z,-5.57
2023-02-11T23:21:36.987Z,-5.49
2023-02-11T23:24:12.583Z,-5.39
2023-02-11T23:26:41.847Z,-5.20
2023-02-11T23:29:10.350Z,-5.20
2023-02-11T23:31:40.833Z,-5.36
2023-02-11T23:34:10.281Z,-5.41
2023-02-11T23:36:38.146Z,-5.48
2023-02-11T23:39:06.469Z,-5.32
2023-02-11T23:41:34.326Z,-5.36
2023-02-11T23:44:02.334Z,-5.25
2023-02-11T23:46:30.261Z,-5.25
2023-02-11T23:48:58.175Z,-5.11
2023-02-11T23:51:26.111Z,-5.19
2023-02-11T23:53:56.317Z,-5.39
2023-02-11T23:56:26.821Z,-5.55
2023-02-11T23:58:57.429Z,-5.73
